Time;durP1;ratioP1;P1;durP2;ratioP2;P2;SDS_P1;SDS_P2;PMS_P1;PMS_P2;Temp;Humidity;BMP_temperature;BMP_pressure;BME280_temperature;BME280_humidity;BME280_pressure;Samples;Min_cycle;Max_cycle;Signal;HPM_P1;HPM_P2
2021/09/10 00:01:32;;;;;;;11.30;8.10;;;;;;;;;;5046396;28;20458;-56
2021/09/10 00:04:02;;;;;;;14.33;7.60;;;;;;;;;;5046597;28;20447;-58
2021/09/10 00:06:47;;;;;;;8.20;7.40;;;;;;;;;;5053721;28;20557;-58
2021/09/10 00:09:14;;;;;;;10.90;7.90;;;;;;;;;;5069663;28;20488;-52
2021/09/10 00:11:42;;;;;;;11.57;9.40;;;;;;;;;;5078222;28;20504;-53
2021/09/10 00:14:09;;;;;;;17.50;9.60;;;;;;;;;;5077887;28;20477;-53
2021/09/10 00:16:38;;;;;;;10.20;9.10;;;;;;;;;;5077748;28;20448;-55
2021/09/10 00:19:14;;;;;;;10.57;7.60;;;;;;;;;;5077775;28;20448;-50
2021/09/10 00:21:41;;;;;;;10.47;9.00;;;;;;;;;;5066923;28;20449;-56
2021/09/10 00:24:09;;;;;;;11.17;9.67;;;;;;;;;;5077745;28;20461;-49
2021/09/10 00:26:54;;;;;;;12.53;9.20;;;;;;;;;;5063774;28;20453;-54
2021/09/10 00:29:22;;;;;;;10.57;8.13;;;;;;;;;;5077231;28;20461;-57
2021/09/10 00:31:51;;;;;;;9.20;8.17;;;;;;;;;;5077923;28;20465;-51
2021/09/10 00:34:18;;;;;;;10.63;8.50;;;;;;;;;;5077398;28;20507;-54
2021/09/10 00:36:46;;;;;;;12.50;8.03;;;;;;;;;;5077627;28;20534;-53
2021/09/10 00:39:13;;;;;;;12.97;9.70;;;;;;;;;;5077283;28;20458;-53
2021/09/10 00:42:00;;;;;;;13.00;8.40;;;;;;;;;;5077656;28;20456;-55
2021/09/10 00:44:27;;;;;;;10.70;9.60;;;;;;;;;;5056560;28;20588;-54
2021/09/10 00:46:56;;;;;;;10.10;9.00;;;;;;;;;;5057498;28;20465;-53
2021/09/10 00:49:32;;;;;;;11.17;9.13;;;;;;;;;;5057546;28;20492;-48
2021/09/10 00:51:59;;;;;;;10.83;8.17;;;;;;;;;;5070035;28;20515;-57
2021/09/10 00:54:26;;;;;;;12.37;10.03;;;;;;;;;;5076874;28;20489;-56
2021/09/10 00:59:57;;;;;;;14.53;8.50;;;;;;;;;;5061574;28;20480;-51
2021/09/10 01:02:26;;;;;;;10.63;8.77;;;;;;;;;;5057384;28;20485;-53
2021/09/10 01:04:53;;;;;;;12.70;7.93;;;;;;;;;;5056909;28;20572;-46
2021/09/10 01:07:21;;;;;;;10.30;8.70;;;;;;;;;;5056543;28;20465;-49
2021/09/10 01:09:48;;;;;;;8.90;7.70;;;;;;;;;;5056815;28;20430;-53
2021/09/10 01:12:45;;;;;;;9.30;7.97;;;;;;;;;;5056514;28;20461;-58
2021/09/10 01:15:13;;;;;;;8.83;7.07;;;;;;;;;;5056593;28;20473;-58
2021/09/10 01:17:41;;;;;;;8.77;7.80;;;;;;;;;;5056758;28;20508;-57
2021/09/10 01:20:15;;;;;;;15.53;8.73;;;;;;;;;;5056243;28;20453;-52
2021/09/10 01:22:43;;;;;;;8.97;7.80;;;;;;;;;;5056704;28;20500;-51
2021/09/10 01:25:14;;;;;;;13.03;8.53;;;;;;;;;;5056550;28;20470;-54
2021/09/10 01:27:43;;;;;;;11.53;8.07;;;;;;;;;;5056908;28;20466;-57
2021/09/10 01:30:12;;;;;;;9.90;8.17;;;;;;;;;;5056126;28;20458;-56
2021/09/10 01:32:39;;;;;;;13.00;9.90;;;;;;;;;;5056524;28;20470;-58
2021/09/10 01:35:16;;;;;;;9.80;8.03;;;;;;;;;;5039419;28;20520;-48
2021/09/10 01:37:43;;;;;;;10.13;9.07;;;;;;;;;;5056385;28;20518;-55
2021/09/10 01:40:14;;;;;;;9.70;7.90;;;;;;;;;;5056430;28;20454;-58
2021/09/10 01:42:59;;;;;;;10.53;9.43;;;;;;;;;;5056469;28;20457;-52
2021/09/10 01:45:26;;;;;;;14.53;9.17;;;;;;;;;;5055734;28;20486;-52
2021/09/10 01:47:54;;;;;;;9.37;7.83;;;;;;;;;;5056390;28;20484;-56
2021/09/10 01:50:35;;;;;;;14.60;9.73;;;;;;;;;;5055931;28;20458;-55
2021/09/10 01:53:03;;;;;;;11.27;7.80;;;;;;;;;;5067376;28;20476;-57
2021/09/10 01:55:35;;;;;;;8.00;7.20;;;;;;;;;;5071899;28;20503;-52
2021/09/10 01:58:02;;;;;;;11.77;8.77;;;;;;;;;;5076515;28;20483;-48
2021/09/10 02:00:30;;;;;;;11.37;8.43;;;;;;;;;;5076556;28;20425;-58
2021/09/10 02:03:05;;;;;;;11.47;9.03;;;;;;;;;;5076347;28;20429;-55
2021/09/10 02:05:33;;;;;;;14.63;8.23;;;;;;;;;;5076502;28;20463;-54
2021/09/10 02:08:00;;;;;;;8.90;8.00;;;;;;;;;;5076730;28;20457;-56
2021/09/10 02:10:37;;;;;;;15.13;9.30;;;;;;;;;;5076733;28;20444;-53
2021/09/10 02:13:05;;;;;;;15.53;8.40;;;;;;;;;;5074433;28;20488;-53
2021/09/10 02:15:33;;;;;;;9.57;7.47;;;;;;;;;;5076288;28;20481;-49
2021/09/10 02:18:11;;;;;;;12.57;8.70;;;;;;;;;;5079077;28;20464;-50
2021/09/10 02:20:38;;;;;;;10.47;8.10;;;;;;;;;;5080082;28;20485;-56
2021/09/10 02:23:06;;;;;;;8.70;7.80;;;;;;;;;;5079158;28;20521;-50
2021/09/10 02:25:38;;;;;;;11.60;7.27;;;;;;;;;;5081012;28;20468;-52
2021/09/10 02:28:05;;;;;;;21.33;8.47;;;;;;;;;;5076612;28;20446;-53
2021/09/10 02:30:34;;;;;;;10.27;9.00;;;;;;;;;;5072092;28;20463;-50
2021/09/10 02:33:01;;;;;;;10.83;8.70;;;;;;;;;;5080032;28;20459;-57
2021/09/10 02:35:29;;;;;;;10.77;7.87;;;;;;;;;;5080336;28;20480;-51
2021/09/10 02:37:56;;;;;;;12.03;9.03;;;;;;;;;;5080481;28;20433;-55
2021/09/10 02:40:24;;;;;;;9.97;8.90;;;;;;;;;;5080595;28;20456;-54
2021/09/10 02:42:52;;;;;;;12.47;8.73;;;;;;;;;;5080182;28;20498;-48
2021/09/10 02:45:20;;;;;;;10.73;8.03;;;;;;;;;;5074027;28;20476;-50
2021/09/10 02:47:47;;;;;;;10.83;8.33;;;;;;;;;;5074328;28;20487;-55
2021/09/10 02:50:14;;;;;;;11.30;7.60;;;;;;;;;;5079013;28;20444;-54
2021/09/10 02:55:46;;;;;;;12.30;8.07;;;;;;;;;;5078081;28;20492;-53
2021/09/10 02:58:14;;;;;;;9.70;8.70;;;;;;;;;;5065453;28;20457;-53
2021/09/10 03:00:43;;;;;;;11.77;8.97;;;;;;;;;;5078433;28;20449;-51
2021/09/10 03:03:10;;;;;;;13.60;9.10;;;;;;;;;;5067323;28;20452;-56
2021/09/10 03:05:41;;;;;;;11.80;8.40;;;;;;;;;;5079609;28;20448;-51
2021/09/10 03:11:14;;;;;;;14.63;9.07;;;;;;;;;;5077728;28;20416;-56
2021/09/10 03:13:43;;;;;;;12.23;9.37;;;;;;;;;;5037595;28;20503;-51
2021/09/10 03:16:11;;;;;;;14.87;7.73;;;;;;;;;;5023929;28;20600;-48
2021/09/10 03:19:06;;;;;;;10.43;8.27;;;;;;;;;;5039563;28;20447;-49
2021/09/10 03:21:34;;;;;;;12.13;8.33;;;;;;;;;;5039952;28;20466;-50
2021/09/10 03:24:02;;;;;;;11.67;7.87;;;;;;;;;;5039450;28;20505;-57
2021/09/10 03:26:33;;;;;;;15.03;9.37;;;;;;;;;;5039677;28;20431;-57
2021/09/10 03:29:01;;;;;;;10.23;7.73;;;;;;;;;;5038697;28;20457;-53
2021/09/10 03:31:29;;;;;;;17.10;9.77;;;;;;;;;;5039446;28;20469;-51
2021/09/10 03:34:30;;;;;;;14.33;9.07;;;;;;;;;;5039341;28;20447;-54
2021/09/10 03:36:57;;;;;;;11.50;8.13;;;;;;;;;;5038858;28;20457;-55
2021/09/10 03:39:25;;;;;;;14.13;10.80;;;;;;;;;;5038805;28;20454;-53
2021/09/10 03:44:57;;;;;;;9.67;8.47;;;;;;;;;;5030868;28;20507;-49
2021/09/10 03:47:27;;;;;;;9.27;8.23;;;;;;;;;;5047947;28;20438;-50
2021/09/10 03:50:02;;;;;;;12.57;8.80;;;;;;;;;;5040780;28;20443;-56
2021/09/10 03:52:30;;;;;;;10.67;9.03;;;;;;;;;;5036193;28;20486;-49
2021/09/10 03:54:59;;;;;;;12.87;9.23;;;;;;;;;;5036678;28;20510;-46
2021/09/10 03:57:29;;;;;;;9.73;7.97;;;;;;;;;;5022433;28;20447;-56
2021/09/10 04:00:00;;;;;;;9.43;8.40;;;;;;;;;;5038970;28;20451;-56
2021/09/10 04:02:50;;;;;;;10.67;8.77;;;;;;;;;;5036437;28;20452;-58
2021/09/10 04:05:18;;;;;;;12.53;8.80;;;;;;;;;;5028782;28;20467;-52
2021/09/10 04:07:50;;;;;;;11.13;9.10;;;;;;;;;;5038205;28;20500;-57
2021/09/10 04:10:40;;;;;;;12.40;8.60;;;;;;;;;;5038239;28;20466;-59
2021/09/10 04:13:07;;;;;;;15.33;9.53;;;;;;;;;;5055127;28;20489;-56
2021/09/10 04:15:36;;;;;;;12.53;10.90;;;;;;;;;;5058051;28;20509;-52
2021/09/10 04:18:05;;;;;;;13.77;9.30;;;;;;;;;;5057675;28;20442;-51
2021/09/10 04:20:34;;;;;;;10.67;9.13;;;;;;;;;;5058031;28;20501;-54
2021/09/10 04:23:01;;;;;;;10.90;8.87;;;;;;;;;;5057951;28;20446;-57
2021/09/10 04:25:57;;;;;;;12.30;8.80;;;;;;;;;;5058043;28;20634;-55
2021/09/10 04:28:24;;;;;;;14.73;9.10;;;;;;;;;;5057498;28;20466;-47
2021/09/10 04:30:55;;;;;;;12.27;9.40;;;;;;;;;;5057911;28;20460;-55
2021/09/10 04:33:23;;;;;;;11.23;8.83;;;;;;;;;;5057539;28;20454;-57
2021/09/10 04:35:53;;;;;;;15.63;10.30;;;;;;;;;;5057366;28;20530;-52
2021/09/10 04:38:21;;;;;;;10.37;9.20;;;;;;;;;;5057631;28;20470;-55
2021/09/10 04:40:48;;;;;;;12.00;9.57;;;;;;;;;;5070348;28;20456;-54
2021/09/10 04:43:15;;;;;;;12.10;9.30;;;;;;;;;;5071479;28;20446;-55
2021/09/10 04:46:01;;;;;;;11.90;9.00;;;;;;;;;;5057365;28;20452;-55
2021/09/10 04:48:29;;;;;;;10.50;9.40;;;;;;;;;;5037890;28;20455;-52
2021/09/10 04:50:56;;;;;;;12.77;9.70;;;;;;;;;;5051918;28;20461;-54
2021/09/10 04:53:23;;;;;;;11.27;8.93;;;;;;;;;;5057341;28;20450;-48
2021/09/10 04:56:34;;;;;;;11.40;9.00;;;;;;;;;;5057429;28;20493;-55
2021/09/10 04:59:29;;;;;;;9.77;8.40;;;;;;;;;;5057238;28;20434;-58
2021/09/10 05:01:58;;;;;;;11.27;9.60;;;;;;;;;;5057176;28;20442;-52
2021/09/10 05:04:25;;;;;;;13.77;10.70;;;;;;;;;;5056178;28;20490;-52
2021/09/10 05:07:20;;;;;;;13.50;10.37;;;;;;;;;;5056768;28;20462;-58
2021/09/10 05:09:50;;;;;;;11.30;10.10;;;;;;;;;;5056823;28;20461;-54
2021/09/10 05:12:17;;;;;;;16.43;11.60;;;;;;;;;;5055972;28;20485;-54
2021/09/10 05:15:11;;;;;;;10.90;9.30;;;;;;;;;;5056721;28;20542;-52
2021/09/10 05:17:40;;;;;;;12.00;10.37;;;;;;;;;;5047173;28;20450;-51
2021/09/10 05:20:09;;;;;;;14.33;10.43;;;;;;;;;;5056037;28;20446;-56
2021/09/10 05:22:56;;;;;;;11.30;9.90;;;;;;;;;;5046149;28;20455;-56
2021/09/10 05:25:24;;;;;;;12.30;9.30;;;;;;;;;;5056474;28;20454;-56
2021/09/10 05:27:52;;;;;;;24.13;12.00;;;;;;;;;;5056540;28;20454;-53
2021/09/10 05:30:44;;;;;;;15.47;10.70;;;;;;;;;;5050315;28;20498;-50
2021/09/10 05:33:45;;;;;;;11.67;10.47;;;;;;;;;;5049607;28;20516;-59
2021/09/10 05:36:13;;;;;;;14.97;11.17;;;;;;;;;;5055976;28;20469;-53
2021/09/10 05:38:42;;;;;;;14.30;11.27;;;;;;;;;;5056378;28;20497;-56
2021/09/10 05:41:15;;;;;;;16.27;11.10;;;;;;;;;;5055808;28;20454;-57
2021/09/10 05:46:40;;;;;;;12.90;10.20;;;;;;;;;;5035350;28;20554;-63
2021/09/10 05:49:10;;;;;;;12.80;10.70;;;;;;;;;;5029304;28;20463;-56
2021/09/10 05:51:59;;;;;;;12.00;10.40;;;;;;;;;;5035778;28;20455;-53
2021/09/10 05:54:27;;;;;;;12.43;9.80;;;;;;;;;;5033772;28;20443;-51
2021/09/10 05:56:55;;;;;;;12.30;10.40;;;;;;;;;;5020462;28;20483;-49
2021/09/10 05:59:48;;;;;;;12.33;10.70;;;;;;;;;;5016511;28;20416;-55
2021/09/10 06:02:15;;;;;;;11.23;10.07;;;;;;;;;;5035387;28;20463;-54
2021/09/10 06:04:44;;;;;;;13.10;10.03;;;;;;;;;;5036619;28;20447;-55
2021/09/10 06:07:27;;;;;;;12.40;9.63;;;;;;;;;;5036301;28;20482;-53
2021/09/10 06:09:54;;;;;;;10.90;9.60;;;;;;;;;;5036246;28;20518;-53
2021/09/10 06:12:23;;;;;;;16.37;10.00;;;;;;;;;;5036186;28;20475;-58
2021/09/10 06:15:19;;;;;;;13.57;9.63;;;;;;;;;;5036650;28;20446;-54
2021/09/10 06:17:47;;;;;;;16.10;9.37;;;;;;;;;;5045634;28;20474;-54
2021/09/10 06:20:17;;;;;;;12.30;9.80;;;;;;;;;;5055482;28;20445;-52
2021/09/10 06:22:44;;;;;;;19.60;9.63;;;;;;;;;;5055280;28;20710;-57
2021/09/10 06:25:12;;;;;;;12.80;9.50;;;;;;;;;;5054978;28;20460;-52
2021/09/10 06:27:48;;;;;;;11.20;9.77;;;;;;;;;;5051125;28;20457;-55
2021/09/10 06:30:17;;;;;;;14.43;9.83;;;;;;;;;;5055908;28;20453;-51
2021/09/10 06:32:58;;;;;;;14.97;11.40;;;;;;;;;;5055376;28;20431;-53
2021/09/10 06:35:36;;;;;;;12.13;8.97;;;;;;;;;;5055289;28;20492;-53
2021/09/10 06:38:06;;;;;;;12.67;9.87;;;;;;;;;;5055145;28;20456;-54
2021/09/10 06:40:49;;;;;;;15.50;9.67;;;;;;;;;;5056033;28;20431;-55
2021/09/10 06:43:16;;;;;;;9.57;7.87;;;;;;;;;;5055214;28;20446;-52
2021/09/10 06:45:50;;;;;;;15.93;7.90;;;;;;;;;;5055517;28;20434;-50
2021/09/10 06:48:19;;;;;;;10.00;8.17;;;;;;;;;;5061430;28;20481;-51
2021/09/10 06:50:53;;;;;;;10.57;8.83;;;;;;;;;;5048149;28;20474;-55
2021/09/10 06:53:22;;;;;;;14.10;9.23;;;;;;;;;;5037321;28;20466;-51
2021/09/10 06:55:53;;;;;;;11.23;9.20;;;;;;;;;;5053284;28;20618;-51
2021/09/10 06:58:36;;;;;;;11.90;8.07;;;;;;;;;;5055953;28;20462;-52
2021/09/10 07:01:05;;;;;;;13.40;8.23;;;;;;;;;;5042610;28;20458;-53
2021/09/10 07:03:33;;;;;;;11.17;10.00;;;;;;;;;;5048627;28;20492;-55
2021/09/10 07:06:18;;;;;;;8.87;7.97;;;;;;;;;;5059145;28;20466;-51
2021/09/10 07:08:45;;;;;;;10.20;7.30;;;;;;;;;;5045125;28;20562;-53
2021/09/10 07:11:13;;;;;;;15.33;7.77;;;;;;;;;;5039161;28;20497;-53
2021/09/10 07:19:28;;;;;;;11.57;7.97;;;;;;;;;;5162138;22;20597;-51
2021/09/10 07:21:57;;;;;;;8.80;7.90;;;;;;;;;;5057900;28;20462;-55
2021/09/10 07:24:24;;;;;;;10.50;7.40;;;;;;;;;;5058267;28;20465;-55
2021/09/10 07:27:00;;;;;;;16.20;7.30;;;;;;;;;;5058816;28;20418;-55
2021/09/10 07:29:28;;;;;;;7.27;6.53;;;;;;;;;;5058763;28;20461;-55
2021/09/10 07:32:07;;;;;;;15.57;8.03;;;;;;;;;;5057882;28;20446;-51
2021/09/10 07:34:38;;;;;;;7.93;6.80;;;;;;;;;;5040416;28;20462;-52
2021/09/10 07:37:33;;;;;;;9.80;5.87;;;;;;;;;;5057778;28;20470;-52
2021/09/10 07:43:06;;;;;;;10.07;6.90;;;;;;;;;;5056137;28;20559;-56
2021/09/10 07:45:33;;;;;;;9.20;5.60;;;;;;;;;;5058054;28;20477;-50
2021/09/10 07:48:01;;;;;;;5.63;5.03;;;;;;;;;;5042442;28;20443;-57
2021/09/10 07:50:28;;;;;;;8.87;6.07;;;;;;;;;;5038284;28;20509;-55
2021/09/10 07:53:17;;;;;;;8.17;5.30;;;;;;;;;;5045253;28;20446;-50
2021/09/10 07:55:50;;;;;;;9.50;6.27;;;;;;;;;;5057983;28;20705;-51
2021/09/10 07:58:42;;;;;;;8.40;5.30;;;;;;;;;;5058868;28;20442;-50
2021/09/10 08:01:11;;;;;;;6.20;4.73;;;;;;;;;;5057472;28;20430;-55
2021/09/10 08:03:38;;;;;;;8.27;4.70;;;;;;;;;;5058230;28;20454;-56
2021/09/10 08:06:42;;;;;;;7.40;4.87;;;;;;;;;;5057913;28;20476;-56
2021/09/10 08:09:32;;;;;;;7.20;4.40;;;;;;;;;;5036109;28;20487;-61
2021/09/10 08:12:00;;;;;;;6.00;4.87;;;;;;;;;;5037888;28;20447;-53
2021/09/10 08:14:29;;;;;;;6.03;4.90;;;;;;;;;;5036975;28;20470;-55
2021/09/10 08:16:58;;;;;;;6.50;4.30;;;;;;;;;;5037976;28;20478;-51
2021/09/10 08:19:50;;;;;;;6.23;4.80;;;;;;;;;;5038201;28;20443;-53
2021/09/10 08:22:17;;;;;;;5.67;4.20;;;;;;;;;;5037625;28;20450;-56
2021/09/10 08:24:47;;;;;;;9.37;4.73;;;;;;;;;;5037538;28;20519;-54
2021/09/10 08:27:29;;;;;;;8.70;4.97;;;;;;;;;;5037259;28;20450;-51
2021/09/10 08:30:03;;;;;;;8.23;5.40;;;;;;;;;;5037255;28;20446;-54
2021/09/10 08:32:44;;;;;;;6.53;4.77;;;;;;;;;;5037921;28;20501;-56
2021/09/10 08:35:24;;;;;;;6.60;5.10;;;;;;;;;;5037444;28;20458;-56
2021/09/10 08:37:51;;;;;;;6.60;5.50;;;;;;;;;;5037372;28;20486;-49
2021/09/10 08:40:20;;;;;;;7.80;6.27;;;;;;;;;;5037012;28;20455;-56
2021/09/10 08:42:47;;;;;;;7.20;5.50;;;;;;;;;;5037301;28;20729;-52
2021/09/10 08:48:20;;;;;;;6.87;4.80;;;;;;;;;;5036873;28;20417;-56
2021/09/10 08:50:47;;;;;;;7.00;4.80;;;;;;;;;;5036874;28;20451;-47
2021/09/10 08:53:21;;;;;;;11.23;5.83;;;;;;;;;;5035738;28;20451;-48
2021/09/10 08:55:49;;;;;;;6.53;5.20;;;;;;;;;;5047423;28;20517;-57
2021/09/10 08:58:16;;;;;;;8.30;5.70;;;;;;;;;;5056126;28;20486;-51
2021/09/10 09:01:08;;;;;;;7.63;5.07;;;;;;;;;;5056621;28;20489;-50
2021/09/10 09:03:37;;;;;;;8.03;4.83;;;;;;;;;;5055849;28;20458;-55
2021/09/10 09:06:05;;;;;;;8.13;5.00;;;;;;;;;;5056698;28;20493;-55
2021/09/10 09:11:38;;;;;;;7.60;4.40;;;;;;;;;;5051493;28;20836;-54
2021/09/10 09:14:06;;;;;;;4.70;4.03;;;;;;;;;;5036468;28;20442;-56
2021/09/10 09:16:53;;;;;;;7.20;5.70;;;;;;;;;;5036488;28;20550;-57
2021/09/10 09:19:22;;;;;;;4.50;3.90;;;;;;;;;;5036147;28;20459;-55
2021/09/10 09:22:00;;;;;;;7.63;5.33;;;;;;;;;;5035894;28;20454;-57
2021/09/10 09:24:28;;;;;;;7.87;4.83;;;;;;;;;;5035978;28;20450;-59
2021/09/10 09:26:55;;;;;;;6.20;4.20;;;;;;;;;;5035071;28;20490;-56
2021/09/10 09:29:28;;;;;;;9.70;4.37;;;;;;;;;;5035818;28;20463;-57
2021/09/10 09:31:58;;;;;;;6.03;4.33;;;;;;;;;;4999446;28;20440;-53
2021/09/10 09:34:56;;;;;;;5.33;4.40;;;;;;;;;;5015970;28;20443;-51
2021/09/10 09:37:57;;;;;;;11.13;4.40;;;;;;;;;;5034660;28;20549;-57
2021/09/10 09:40:36;;;;;;;11.00;8.30;;;;;;;;;;5020996;28;20463;-53
2021/09/10 09:43:40;;;;;;;7.93;5.20;;;;;;;;;;5035584;28;20598;-52
2021/09/10 09:46:11;;;;;;;6.60;4.67;;;;;;;;;;5035925;28;20446;-57
2021/09/10 09:48:40;;;;;;;6.60;4.40;;;;;;;;;;5035454;28;20482;-53
2021/09/10 09:51:18;;;;;;;6.63;4.47;;;;;;;;;;5035588;28;20461;-55
2021/09/10 09:53:46;;;;;;;6.83;4.00;;;;;;;;;;5045876;28;20476;-53
2021/09/10 09:56:15;;;;;;;7.60;3.73;;;;;;;;;;5055240;28;20481;-54
2021/09/10 10:01:46;;;;;;;6.50;3.73;;;;;;;;;;5040845;28;20476;-56
2021/09/10 10:04:13;;;;;;;3.97;2.43;;;;;;;;;;5035114;28;20462;-54
2021/09/10 10:07:17;;;;;;;10.60;3.23;;;;;;;;;;5035631;28;20459;-56
2021/09/10 10:09:55;;;;;;;5.13;3.50;;;;;;;;;;5035556;28;20451;-56
2021/09/10 10:12:43;;;;;;;7.00;3.10;;;;;;;;;;5036127;28;20455;-53
2021/09/10 10:15:29;;;;;;;5.07;3.33;;;;;;;;;;5035372;28;20457;-56
2021/09/10 10:17:57;;;;;;;5.10;2.90;;;;;;;;;;5034610;28;20501;-52
2021/09/10 10:20:43;;;;;;;6.47;2.57;;;;;;;;;;5034501;28;20443;-55
2021/09/10 10:23:27;;;;;;;6.23;3.00;;;;;;;;;;5034769;28;20489;-51
2021/09/10 10:26:13;;;;;;;6.27;3.53;;;;;;;;;;5034086;28;20439;-51
2021/09/10 10:28:45;;;;;;;8.30;5.50;;;;;;;;;;5034313;28;20582;-50
2021/09/10 10:31:13;;;;;;;6.70;2.83;;;;;;;;;;5034037;28;20494;-53
2021/09/10 10:33:50;;;;;;;4.70;2.43;;;;;;;;;;5033517;28;20447;-53
2021/09/10 10:39:26;;;;;;;5.53;2.87;;;;;;;;;;5036333;28;20490;-56
2021/09/10 10:42:02;;;;;;;9.80;5.97;;;;;;;;;;5037129;28;20445;-55
2021/09/10 10:44:51;;;;;;;5.20;2.40;;;;;;;;;;5032732;28;20514;-61
2021/09/10 10:47:23;;;;;;;4.13;2.23;;;;;;;;;;5036998;28;20557;-55
2021/09/10 10:49:54;;;;;;;3.93;2.33;;;;;;;;;;5034936;28;20455;-56
2021/09/10 10:52:57;;;;;;;5.20;3.23;;;;;;;;;;5035053;28;20533;-48
2021/09/10 10:55:25;;;;;;;4.43;2.70;;;;;;;;;;5056982;28;20535;-54
2021/09/10 10:57:53;;;;;;;4.20;2.67;;;;;;;;;;5036579;28;20492;-54
2021/09/10 11:00:39;;;;;;;5.20;2.83;;;;;;;;;;5036917;28;20618;-59
2021/09/10 11:03:37;;;;;;;4.03;2.27;;;;;;;;;;5040724;28;20507;-57
2021/09/10 11:06:28;;;;;;;3.50;2.33;;;;;;;;;;4976223;28;20525;-61
2021/09/10 11:09:11;;;;;;;3.00;1.90;;;;;;;;;;4970996;28;20453;-53
2021/09/10 11:12:01;;;;;;;3.87;1.83;;;;;;;;;;4977750;29;20721;-51
2021/09/10 11:14:32;;;;;;;3.80;2.03;;;;;;;;;;5021683;28;20486;-54
2021/09/10 11:17:15;;;;;;;4.53;2.30;;;;;;;;;;5076217;28;20509;-55
2021/09/10 11:19:51;;;;;;;2.77;1.50;;;;;;;;;;5057063;28;20516;-59
2021/09/10 11:22:24;;;;;;;3.77;1.60;;;;;;;;;;5057089;28;20446;-53
2021/09/10 11:25:14;;;;;;;5.07;3.30;;;;;;;;;;5052929;28;20439;-56
2021/09/10 11:27:44;;;;;;;3.37;1.97;;;;;;;;;;5047696;28;20564;-56
2021/09/10 11:30:26;;;;;;;4.43;2.00;;;;;;;;;;5057400;28;20439;-55
2021/09/10 11:33:19;;;;;;;6.57;5.73;;;;;;;;;;5056886;28;20438;-51
2021/09/10 11:35:58;;;;;;;4.10;3.10;;;;;;;;;;5053674;28;20466;-54
2021/09/10 11:38:35;;;;;;;5.83;2.00;;;;;;;;;;5056760;28;20462;-58
2021/09/10 11:41:08;;;;;;;3.63;1.40;;;;;;;;;;5057396;28;20501;-59
2021/09/10 11:43:38;;;;;;;5.80;2.00;;;;;;;;;;5057138;28;20497;-53
2021/09/10 11:46:07;;;;;;;4.90;1.80;;;;;;;;;;5056708;28;20449;-59
2021/09/10 11:48:42;;;;;;;3.57;1.80;;;;;;;;;;5066203;28;20446;-51
2021/09/10 11:51:55;;;;;;;6.17;2.90;;;;;;;;;;5056269;28;20434;-54
2021/09/10 11:54:28;;;;;;;3.80;2.30;;;;;;;;;;5054918;28;20994;-57
2021/09/10 12:03:46;;;;;;;5.60;2.07;;;;;;;;;;5054909;28;20457;-56
2021/09/10 12:09:28;;;;;;;4.10;2.40;;;;;;;;;;5037466;28;20438;-52
2021/09/10 12:15:12;;;;;;;5.20;3.90;;;;;;;;;;5034514;28;20472;-55
2021/09/10 12:20:54;;;;;;;4.43;2.20;;;;;;;;;;5036408;28;20439;-54
2021/09/10 12:23:23;;;;;;;6.10;4.50;;;;;;;;;;5036588;28;20532;-58
2021/09/10 12:26:09;;;;;;;5.13;3.30;;;;;;;;;;5035598;28;20415;-52
2021/09/10 12:28:38;;;;;;;6.97;4.57;;;;;;;;;;5034234;28;20494;-56
2021/09/10 12:31:10;;;;;;;6.83;4.43;;;;;;;;;;5035935;28;20470;-56
2021/09/10 12:33:42;;;;;;;6.07;3.53;;;;;;;;;;5035629;28;20451;-57
2021/09/10 12:36:12;;;;;;;6.70;3.10;;;;;;;;;;5036356;28;20454;-57
2021/09/10 12:38:42;;;;;;;7.10;3.33;;;;;;;;;;5035555;28;20491;-54
2021/09/10 12:41:14;;;;;;;5.20;2.80;;;;;;;;;;5035918;28;20458;-52
2021/09/10 12:46:52;;;;;;;3.73;2.50;;;;;;;;;;5040764;28;20490;-56
2021/09/10 12:49:40;;;;;;;9.87;4.70;;;;;;;;;;5042981;28;20462;-56
2021/09/10 12:55:18;;;;;;;5.70;2.80;;;;;;;;;;5033206;28;20465;-58
2021/09/10 12:58:02;;;;;;;6.70;3.07;;;;;;;;;;5045810;28;20497;-54
2021/09/10 13:01:05;;;;;;;5.07;3.07;;;;;;;;;;5054613;28;20442;-55
2021/09/10 13:03:49;;;;;;;4.77;3.10;;;;;;;;;;5040605;28;20446;-56
2021/09/10 13:10:14;;;;;;;;;;;;;;;;;;;;;
2021/09/10 13:16:23;;;;;;;5.17;3.00;;;;;;;;;;4914678;29;20440;-52
2021/09/10 13:19:27;;;;;;;4.43;2.87;;;;;;;;;;4918303;29;20480;-50
2021/09/10 13:25:05;;;;;;;3.93;2.83;;;;;;;;;;4976039;29;20503;-52
2021/09/10 13:27:44;;;;;;;7.67;4.80;;;;;;;;;;4976174;29;20496;-51
2021/09/10 13:30:12;;;;;;;4.50;3.50;;;;;;;;;;4975200;29;20453;-53
2021/09/10 13:32:44;;;;;;;6.03;4.80;;;;;;;;;;4975696;28;20497;-54
2021/09/10 13:35:53;;;;;;;5.13;3.10;;;;;;;;;;4991513;28;20437;-52
2021/09/10 13:38:27;;;;;;;4.50;3.57;;;;;;;;;;4986742;28;20503;-52
2021/09/10 13:44:08;;;;;;;5.50;3.20;;;;;;;;;;4972793;28;20635;-51
2021/09/10 13:46:49;;;;;;;4.43;2.57;;;;;;;;;;4969035;28;20447;-58
2021/09/10 13:49:21;;;;;;;3.20;2.13;;;;;;;;;;4994905;28;20448;-55
2021/09/10 13:52:07;;;;;;;3.97;2.37;;;;;;;;;;4985894;28;20460;-50
2021/09/10 13:54:42;;;;;;;3.70;2.50;;;;;;;;;;5013150;28;20476;-49
2021/09/10 13:57:37;;;;;;;5.40;3.00;;;;;;;;;;5014649;28;20471;-55
2021/09/10 14:03:26;;;;;;;4.00;2.50;;;;;;;;;;5012577;28;20447;-59
2021/09/10 14:05:59;;;;;;;5.73;3.20;;;;;;;;;;5020013;28;20448;-62
2021/09/10 14:11:31;;;;;;;4.43;3.27;;;;;;;;;;5014775;28;20406;-53
2021/09/10 14:14:00;;;;;;;6.40;4.97;;;;;;;;;;5018397;28;20459;-49
2021/09/10 14:16:55;;;;;;;6.43;4.70;;;;;;;;;;5034558;28;20454;-58
2021/09/10 14:19:27;;;;;;;14.20;11.43;;;;;;;;;;5020277;28;20520;-54
2021/09/10 14:22:00;;;;;;;6.13;3.70;;;;;;;;;;5018000;28;20455;-54
2021/09/10 14:24:27;;;;;;;4.43;3.00;;;;;;;;;;5038972;28;20466;-54
2021/09/10 14:27:40;;;;;;;6.17;4.33;;;;;;;;;;5038208;28;20701;-54
2021/09/10 14:30:14;;;;;;;4.70;2.37;;;;;;;;;;5038555;28;20462;-53
2021/09/10 14:32:55;;;;;;;4.90;3.53;;;;;;;;;;5038329;28;20452;-59
2021/09/10 14:35:23;;;;;;;3.67;2.27;;;;;;;;;;5038121;28;20493;-59
2021/09/10 14:37:58;;;;;;;3.27;1.87;;;;;;;;;;5029471;28;20491;-58
2021/09/10 14:40:31;;;;;;;6.40;2.63;;;;;;;;;;5024244;28;20527;-54
2021/09/10 14:43:01;;;;;;;5.37;2.00;;;;;;;;;;5046381;28;20468;-56
2021/09/10 14:48:41;;;;;;;5.20;2.40;;;;;;;;;;5054703;28;20516;-52
2021/09/10 14:51:12;;;;;;;3.23;2.10;;;;;;;;;;5057203;28;20446;-54
2021/09/10 14:53:57;;;;;;;3.10;1.70;;;;;;;;;;5057090;28;20457;-56
2021/09/10 14:56:44;;;;;;;3.87;2.10;;;;;;;;;;5056889;28;20497;-56
2021/09/10 14:59:20;;;;;;;4.33;2.20;;;;;;;;;;5046409;28;20477;-54
2021/09/10 15:01:59;;;;;;;3.80;2.20;;;;;;;;;;5057071;28;20450;-54
2021/09/10 15:04:34;;;;;;;4.23;2.30;;;;;;;;;;5057165;28;20504;-58
2021/09/10 15:07:17;;;;;;;11.60;2.43;;;;;;;;;;5056555;28;20448;-51
2021/09/10 15:09:46;;;;;;;3.53;1.87;;;;;;;;;;5056760;28;20440;-53
2021/09/10 15:12:30;;;;;;;5.27;1.70;;;;;;;;;;5056012;28;20542;-54
2021/09/10 15:15:00;;;;;;;3.10;1.47;;;;;;;;;;5047345;28;20463;-55
2021/09/10 15:17:28;;;;;;;4.70;3.33;;;;;;;;;;5054785;28;20450;-57
2021/09/10 15:20:11;;;;;;;3.10;1.40;;;;;;;;;;5052407;28;20485;-58
2021/09/10 15:22:47;;;;;;;6.40;4.43;;;;;;;;;;5040563;28;20514;-51
2021/09/10 15:31:09;;;;;;;2.87;1.40;;;;;;;;;;5054667;28;20475;-58
2021/09/10 15:33:38;;;;;;;3.20;1.70;;;;;;;;;;5055654;28;20502;-58
2021/09/10 15:36:17;;;;;;;4.20;2.33;;;;;;;;;;5056566;28;20450;-56
2021/09/10 15:38:49;;;;;;;4.10;2.10;;;;;;;;;;5057215;28;20520;-53
2021/09/10 15:41:31;;;;;;;3.53;1.70;;;;;;;;;;5056664;28;20469;-55
2021/09/10 15:43:58;;;;;;;5.57;1.93;;;;;;;;;;5054927;28;20488;-59
2021/09/10 15:46:26;;;;;;;5.97;2.07;;;;;;;;;;5055332;28;20462;-54
2021/09/10 15:48:56;;;;;;;4.60;2.20;;;;;;;;;;5057058;28;20486;-53
2021/09/10 15:54:21;;;;;;;4.60;2.47;;;;;;;;;;5048843;28;20454;-56
2021/09/10 15:56:48;;;;;;;4.00;2.73;;;;;;;;;;5055710;28;20452;-53
2021/09/10 15:59:16;;;;;;;4.50;2.90;;;;;;;;;;5038082;28;20474;-49
2021/09/10 16:01:45;;;;;;;4.60;2.30;;;;;;;;;;5055557;28;20710;-53
2021/09/10 16:04:14;;;;;;;4.70;3.10;;;;;;;;;;5054980;28;20897;-56
2021/09/10 16:06:44;;;;;;;4.93;2.67;;;;;;;;;;5056299;28;20529;-54
2021/09/10 16:09:27;;;;;;;3.27;2.00;;;;;;;;;;5057589;28;20430;-59
2021/09/10 16:11:58;;;;;;;5.70;3.07;;;;;;;;;;5057406;28;20521;-51
2021/09/10 16:14:29;;;;;;;5.03;2.40;;;;;;;;;;5054066;28;20459;-53
2021/09/10 16:17:21;;;;;;;4.87;2.47;;;;;;;;;;5056265;28;20500;-50
2021/09/10 16:19:48;;;;;;;4.63;2.40;;;;;;;;;;5037216;28;20493;-57
2021/09/10 16:22:22;;;;;;;12.60;9.70;;;;;;;;;;5037439;28;20458;-53
2021/09/10 16:24:57;;;;;;;31.30;23.00;;;;;;;;;;5037972;28;20514;-52
2021/09/10 16:27:24;;;;;;;5.00;3.50;;;;;;;;;;5056008;28;20457;-54
2021/09/10 16:29:51;;;;;;;11.10;8.03;;;;;;;;;;5056029;28;20442;-55
2021/09/10 16:32:31;;;;;;;18.87;14.10;;;;;;;;;;5055801;28;20489;-56
2021/09/10 16:34:59;;;;;;;7.60;3.80;;;;;;;;;;5056598;28;20457;-51
2021/09/10 16:37:28;;;;;;;9.03;4.30;;;;;;;;;;5056173;28;20468;-52
2021/09/10 16:40:30;;;;;;;6.77;3.93;;;;;;;;;;5055590;28;20498;-58
2021/09/10 16:43:16;;;;;;;12.10;5.43;;;;;;;;;;5045565;28;20520;-55
2021/09/10 16:45:44;;;;;;;12.40;6.70;;;;;;;;;;5054600;28;20457;-54
2021/09/10 16:48:13;;;;;;;5.80;3.07;;;;;;;;;;5053986;28;20473;-54
2021/09/10 16:50:46;;;;;;;14.27;8.63;;;;;;;;;;5054818;28;20466;-57
2021/09/10 16:53:16;;;;;;;7.97;3.67;;;;;;;;;;5051056;28;20489;-55